Time;durP1;ratioP1;P1;durP2;ratioP2;P2;SDS_P1;SDS_P2;PMS_P1;PMS_P2;Temp;Humidity;BMP_temperature;BMP_pressure;BME280_temperature;BME280_humidity;BME280_pressure;Samples;Min_cycle;Max_cycle;Signal;HPM_P1;HPM_P2
2021/11/27 00:00:37;;;;;;;10.77;4.53;;;;;;;12.60;60.75;100203.94;5056667;28;20072;-63
2021/11/27 00:03:05;;;;;;;15.17;4.30;;;;;;;12.67;60.73;100206.38;5061669;28;20063;-63
2021/11/27 00:05:34;;;;;;;9.97;4.13;;;;;;;12.67;60.88;100209.16;5062225;28;20094;-63
2021/11/27 00:08:02;;;;;;;8.60;4.70;;;;;;;12.79;60.93;100217.97;5068366;28;20931;-62
2021/11/27 00:10:31;;;;;;;17.53;4.67;;;;;;;12.83;60.84;100224.63;5065126;28;20044;-62
2021/11/27 00:12:59;;;;;;;16.47;5.33;;;;;;;12.77;60.79;100217.44;5065548;28;20056;-62
2021/11/27 00:15:28;;;;;;;9.57;4.57;;;;;;;12.72;60.98;100209.13;5065760;28;20067;-62
2021/11/27 00:17:57;;;;;;;14.33;4.30;;;;;;;12.75;61.10;100208.47;5067716;28;20052;-61
2021/11/27 00:20:28;;;;;;;7.20;3.77;;;;;;;12.77;61.10;100209.03;5066690;28;20412;-61
2021/11/27 00:22:55;;;;;;;12.77;3.20;;;;;;;12.64;61.13;100187.38;5067025;28;20044;-62
2021/11/27 00:25:23;;;;;;;9.80;3.43;;;;;;;12.75;61.32;100200.06;5066606;28;20047;-59
2021/11/27 00:27:50;;;;;;;10.63;3.40;;;;;;;12.66;61.29;100176.69;5068865;28;20453;-61
2021/11/27 00:30:21;;;;;;;5.97;2.77;;;;;;;12.73;61.47;100193.97;5067276;28;20102;-61
2021/11/27 00:32:49;;;;;;;17.97;3.77;;;;;;;12.67;61.60;100189.56;5062097;28;20040;-61
2021/11/27 00:35:19;;;;;;;10.17;4.13;;;;;;;12.73;61.80;100193.97;5065881;28;20052;-62
2021/11/27 00:37:49;;;;;;;;;;;;;;;12.64;61.21;100184.56;5069277;28;20044;-61
2021/11/27 00:40:16;;;;;;;10.63;3.80;;;;;;;12.39;61.69;100161.41;5078281;28;20395;-62
2021/11/27 00:42:44;;;;;;;9.67;3.87;;;;;;;12.41;62.00;100173.16;5064738;28;20091;-61
2021/11/27 00:45:15;;;;;;;13.27;3.60;;;;;;;12.39;62.29;100175.41;5068796;28;20044;-64
2021/11/27 00:47:50;;;;;;;8.43;3.43;;;;;;;12.33;62.51;100168.22;5071211;28;20048;-64
2021/11/27 00:50:22;;;;;;;9.77;3.63;;;;;;;12.45;62.61;100177.00;5069813;28;20049;-62
2021/11/27 00:52:49;;;;;;;18.93;3.93;;;;;;;12.52;62.57;100182.22;5066313;28;20076;-63
2021/11/27 00:55:17;;;;;;;7.87;3.13;;;;;;;12.37;62.63;100148.84;5071004;28;20127;-68
2021/11/27 00:57:47;;;;;;;13.00;4.73;;;;;;;12.42;62.75;100169.19;5069547;28;20049;-70
2021/11/27 01:00:18;;;;;;;18.23;7.10;;;;;;;12.31;62.91;100159.28;5071532;28;20108;-67
2021/11/27 01:02:45;;;;;;;13.07;6.87;;;;;;;12.22;62.99;100155.50;5070884;28;20048;-67
2021/11/27 01:05:12;;;;;;;17.27;6.27;;;;;;;12.27;63.06;100152.59;5068619;28;20049;-64
2021/11/27 01:07:40;;;;;;;15.57;6.73;;;;;;;12.23;63.26;100159.94;5069736;28;20037;-64
2021/11/27 01:10:11;;;;;;;18.30;8.27;;;;;;;12.22;63.29;100147.94;5070169;28;20045;-64
2021/11/27 01:12:38;;;;;;;19.73;7.90;;;;;;;12.18;63.30;100143.25;5069473;28;20718;-65
2021/11/27 01:15:07;;;;;;;18.03;8.27;;;;;;;12.22;63.11;100147.09;5073867;28;20091;-65
2021/11/27 01:17:34;;;;;;;20.57;8.27;;;;;;;12.20;63.17;100140.94;5066967;28;20053;-65
2021/11/27 01:20:05;;;;;;;24.17;7.67;;;;;;;12.13;63.40;100129.31;5072848;28;20377;-64
2021/11/27 01:22:31;;;;;;;14.55;7.38;;;;;;;12.14;63.35;100125.38;5073824;28;20070;-64
2021/11/27 01:24:58;;;;;;;15.20;6.33;;;;;;;12.16;63.66;100129.53;5081919;28;20404;-62
2021/11/27 01:27:27;;;;;;;14.47;7.60;;;;;;;12.15;63.38;100113.03;5071741;28;20101;-63
2021/11/27 01:29:54;;;;;;;13.57;6.57;;;;;;;12.05;63.49;100084.06;5072393;28;20048;-63
2021/11/27 01:32:21;;;;;;;17.13;7.87;;;;;;;12.31;63.41;100120.09;5073883;28;20082;-64
2021/11/27 01:34:49;;;;;;;13.40;5.37;;;;;;;12.22;63.51;100100.34;5065377;28;22752;-64
2021/11/27 01:37:16;;;;;;;13.73;5.67;;;;;;;12.23;63.68;100117.97;5067216;28;20442;-65
2021/11/27 01:39:44;;;;;;;13.87;5.87;;;;;;;12.14;63.84;100114.19;5074004;28;20097;-64
2021/11/27 01:42:12;;;;;;;14.27;5.97;;;;;;;12.18;64.07;100116.06;5072388;28;20055;-66
2021/11/27 01:44:40;;;;;;;19.13;8.30;;;;;;;12.21;64.10;100120.25;5072765;28;20048;-67
2021/11/27 01:47:07;;;;;;;16.83;6.37;;;;;;;12.26;64.09;100114.56;5073809;28;20044;-66
2021/11/27 01:49:35;;;;;;;12.80;6.90;;;;;;;12.19;64.29;100111.31;5069965;28;20328;-66
2021/11/27 01:52:03;;;;;;;14.53;6.90;;;;;;;12.17;64.59;100102.38;5072601;28;20037;-64
2021/11/27 01:54:30;;;;;;;16.60;7.53;;;;;;;12.03;64.67;100096.69;5074066;28;20603;-63
2021/11/27 01:57:01;;;;;;;13.77;7.10;;;;;;;11.97;65.03;100098.75;5072361;28;20040;-64
2021/11/27 01:59:31;;;;;;;14.37;6.43;;;;;;;11.96;65.34;100097.06;5072562;28;20052;-65
2021/11/27 02:01:59;;;;;;;15.57;7.82;;;;;;;11.99;65.61;100095.63;5066253;28;20036;-65
2021/11/27 02:04:27;;;;;;;17.17;7.33;;;;;;;12.01;65.52;100096.16;5072910;28;20417;-66
2021/11/27 02:06:54;;;;;;;15.90;7.90;;;;;;;11.99;65.62;100085.25;5089228;28;20249;-64
2021/11/27 02:09:25;;;;;;;18.07;6.80;;;;;;;11.96;65.65;100091.47;5073313;28;20049;-63
2021/11/27 02:11:52;;;;;;;17.02;7.07;;;;;;;11.89;65.88;100081.78;5085006;28;20044;-65
2021/11/27 02:14:19;;;;;;;17.30;7.63;;;;;;;11.89;66.16;100090.16;5070429;28;20057;-64
2021/11/27 02:16:48;;;;;;;16.03;7.53;;;;;;;11.82;66.23;100076.53;5071964;28;20068;-65
2021/11/27 02:19:15;;;;;;;21.73;7.90;;;;;;;11.70;66.44;100070.53;5071998;28;20504;-65
2021/11/27 02:21:44;;;;;;;13.13;7.20;;;;;;;11.68;66.63;100059.63;5070529;28;20126;-63
2021/11/27 02:24:17;;;;;;;17.63;8.37;;;;;;;11.52;66.91;100064.63;5072263;28;20435;-63
2021/11/27 02:26:46;;;;;;;16.83;8.93;;;;;;;11.49;66.76;100065.22;5070329;28;20102;-63
2021/11/27 02:29:19;;;;;;;18.70;8.20;;;;;;;11.45;67.15;100061.31;5072035;28;20109;-62
2021/11/27 02:31:46;;;;;;;16.73;8.03;;;;;;;11.36;66.99;100057.53;5074784;28;20046;-61
2021/11/27 02:34:15;;;;;;;13.70;8.70;;;;;;;11.36;67.17;100058.38;5068751;28;20052;-61
2021/11/27 02:36:48;;;;;;;16.13;8.80;;;;;;;11.29;67.06;100048.69;5065003;28;20048;-65
2021/11/27 02:39:16;;;;;;;17.43;9.13;;;;;;;11.35;67.25;100064.25;5072413;28;20052;-65
2021/11/27 02:41:43;;;;;;;13.63;8.23;;;;;;;11.32;67.44;100070.47;5068634;28;20081;-61
2021/11/27 02:44:10;;;;;;;15.63;8.30;;;;;;;11.28;67.48;100075.81;5070376;28;20048;-67
2021/11/27 02:46:39;;;;;;;15.43;8.07;;;;;;;11.27;67.78;100076.91;5067711;28;20059;-67
2021/11/27 02:49:07;;;;;;;16.17;8.83;;;;;;;11.31;68.11;100071.56;5067256;28;20404;-61
2021/11/27 02:51:35;;;;;;;19.73;8.67;;;;;;;11.44;68.03;100068.06;5071503;28;20045;-61
2021/11/27 02:54:03;;;;;;;12.73;6.87;;;;;;;11.49;67.87;100062.41;5071976;28;20404;-60
2021/11/27 02:56:30;;;;;;;20.63;8.47;;;;;;;11.44;67.84;100056.88;5070524;28;20500;-61
2021/11/27 02:58:57;;;;;;;18.73;8.40;;;;;;;11.44;68.17;100040.09;5067058;28;20044;-61
2021/11/27 03:01:24;;;;;;;22.53;8.67;;;;;;;11.55;68.15;100047.22;5071428;28;20147;-61
2021/11/27 03:03:51;;;;;;;17.57;8.30;;;;;;;11.66;68.35;100053.53;5071126;28;20147;-64
2021/11/27 03:06:18;;;;;;;18.30;8.10;;;;;;;11.56;68.08;100037.72;5072045;28;20488;-63
2021/11/27 03:08:46;;;;;;;19.67;7.93;;;;;;;11.61;68.48;100054.41;5069393;28;20052;-64
2021/11/27 03:11:13;;;;;;;13.43;8.13;;;;;;;11.59;68.32;100067.88;5071856;28;20450;-64
2021/11/27 03:13:41;;;;;;;14.67;9.20;;;;;;;11.58;68.41;100052.22;5072486;28;20105;-64
2021/11/27 03:16:08;;;;;;;19.87;9.40;;;;;;;11.56;68.30;100046.09;5067365;28;20059;-63
2021/11/27 03:18:35;;;;;;;19.37;9.17;;;;;;;11.50;68.11;100044.50;5071174;28;20044;-64
2021/11/27 03:21:02;;;;;;;23.97;8.07;;;;;;;11.44;68.48;100040.09;5071640;28;20052;-62
2021/11/27 03:23:30;;;;;;;26.47;9.80;;;;;;;11.39;68.19;100026.19;5066592;28;20082;-61
2021/11/27 03:25:57;;;;;;;21.23;10.27;;;;;;;11.46;68.38;100032.25;5072167;28;20117;-65
2021/11/27 03:28:24;;;;;;;23.07;10.77;;;;;;;11.38;67.90;100030.97;5070471;28;20402;-64
2021/11/27 03:30:53;;;;;;;21.23;9.50;;;;;;;11.46;68.00;100032.25;5067966;28;20060;-60
2021/11/27 03:33:20;;;;;;;17.67;9.17;;;;;;;11.45;67.80;100024.97;5070845;28;20044;-62
2021/11/27 03:35:47;;;;;;;19.93;8.33;;;;;;;11.34;68.09;100017.84;5071406;28;20420;-62
2021/11/27 03:38:14;;;;;;;15.87;10.03;;;;;;;11.34;68.51;100023.44;5066026;28;20451;-62
2021/11/27 03:40:41;;;;;;;18.03;8.33;;;;;;;11.28;68.54;100005.94;5066984;28;20408;-61
2021/11/27 03:43:09;;;;;;;20.03;8.43;;;;;;;11.22;68.76;99986.72;5067940;28;20052;-60
2021/11/27 03:45:36;;;;;;;19.23;8.53;;;;;;;11.23;68.96;99994.78;5068955;28;20079;-60
2021/11/27 03:48:12;;;;;;;13.33;7.17;;;;;;;11.35;68.77;100003.59;5061312;28;20044;-65
2021/11/27 03:50:44;;;;;;;19.63;9.53;;;;;;;11.35;68.84;99980.38;5076626;28;20051;-63
2021/11/27 03:53:18;;;;;;;21.47;10.23;;;;;;;11.50;68.86;99994.16;5072143;28;20048;-62
2021/11/27 03:55:46;;;;;;;16.97;9.43;;;;;;;11.59;68.67;99995.16;5072940;28;20048;-61
2021/11/27 03:58:13;;;;;;;19.77;8.33;;;;;;;11.32;69.01;99933.50;5071038;28;20048;-62
2021/11/27 04:00:41;;;;;;;12.87;8.50;;;;;;;11.58;68.68;99985.09;5071045;28;20503;-60
2021/11/27 04:03:11;;;;;;;15.63;8.20;;;;;;;11.59;68.76;99975.59;5070194;28;20495;-63
2021/11/27 04:05:45;;;;;;;17.30;8.48;;;;;;;11.46;68.68;99940.00;5069370;28;20047;-62
2021/11/27 04:08:12;;;;;;;15.83;7.57;;;;;;;11.55;68.81;99938.16;5067548;28;20393;-63
2021/11/27 04:10:39;;;;;;;14.07;8.17;;;;;;;11.84;68.67;99973.59;5070452;28;20439;-66
2021/11/27 04:13:06;;;;;;;15.57;7.53;;;;;;;11.68;68.79;99938.53;5069058;28;20054;-64
2021/11/27 04:15:34;;;;;;;13.67;6.30;;;;;;;11.88;69.04;99966.25;5070099;28;20103;-64
2021/11/27 04:18:01;;;;;;;12.13;6.00;;;;;;;11.82;69.19;99967.41;5071274;28;20105;-64
2021/11/27 04:20:29;;;;;;;17.80;7.13;;;;;;;11.77;69.39;99956.31;5074061;28;20511;-64
2021/11/27 04:22:56;;;;;;;19.70;8.13;;;;;;;11.63;69.51;99931.91;5070279;28;20060;-62
2021/11/27 04:25:23;;;;;;;11.33;5.70;;;;;;;11.78;69.46;99953.19;5070923;28;20106;-63
2021/11/27 04:27:50;;;;;;;18.77;5.70;;;;;;;11.85;69.72;99972.44;5069633;28;20060;-65
2021/11/27 04:30:21;;;;;;;13.37;6.57;;;;;;;11.86;69.69;99962.91;5066978;28;20053;-63
2021/11/27 04:32:49;;;;;;;11.37;5.90;;;;;;;11.89;69.81;99962.28;5071078;28;20051;-65
2021/11/27 04:35:17;;;;;;;11.63;4.33;;;;;;;11.85;69.85;99958.44;5071403;28;20427;-64
2021/11/27 04:37:44;;;;;;;11.33;3.77;;;;;;;11.66;70.02;99935.22;5071127;28;20094;-63
2021/11/27 04:40:12;;;;;;;9.37;3.50;;;;;;;11.66;70.02;99950.03;5069599;28;20041;-63
2021/11/27 04:42:39;;;;;;;8.97;3.40;;;;;;;11.66;70.35;99949.19;5071081;28;20094;-64
2021/11/27 04:45:07;;;;;;;7.67;2.27;;;;;;;11.71;70.51;99940.75;5069916;28;20045;-64
2021/11/27 04:47:35;;;;;;;10.13;2.50;;;;;;;11.73;70.50;99953.28;5066506;28;20399;-65
2021/11/27 04:50:04;;;;;;;3.27;1.60;;;;;;;11.58;70.99;99933.94;5067722;28;20048;-65
2021/11/27 04:52:32;;;;;;;21.77;2.55;;;;;;;11.67;70.93;99967.66;5071829;28;20051;-64
2021/11/27 04:54:59;;;;;;;5.53;2.10;;;;;;;11.73;71.15;99952.47;5074111;28;20230;-64
2021/11/27 04:57:26;;;;;;;16.57;3.23;;;;;;;11.70;71.00;99947.47;5074806;28;20044;-66
2021/11/27 04:59:53;;;;;;;8.67;2.10;;;;;;;11.71;71.35;99943.53;5073621;28;20048;-65
2021/11/27 05:02:20;;;;;;;28.17;8.13;;;;;;;11.75;71.82;99969.75;5069569;28;20087;-64
2021/11/27 05:04:47;;;;;;;32.40;8.90;;;;;;;11.77;71.75;99968.34;5071190;28;20080;-64
2021/11/27 05:07:14;;;;;;;24.67;8.73;;;;;;;11.72;71.80;99956.38;5072981;28;20127;-64
2021/11/27 05:09:41;;;;;;;33.70;9.33;;;;;;;11.68;71.79;99944.13;5068089;28;20079;-63
2021/11/27 05:12:07;;;;;;;22.53;7.20;;;;;;;11.72;71.81;99961.97;5072251;28;20084;-64
2021/11/27 05:14:34;;;;;;;18.40;5.33;;;;;;;11.79;71.79;99973.59;5074327;28;20049;-68
2021/11/27 05:17:02;;;;;;;20.77;7.17;;;;;;;11.83;71.90;99967.13;5073093;28;20072;-69
2021/11/27 05:19:29;;;;;;;15.73;5.53;;;;;;;11.81;71.89;99960.16;5072616;28;20084;-70
2021/11/27 05:21:56;;;;;;;8.17;3.40;;;;;;;11.87;71.94;99970.19;5074222;28;20097;-65
2021/11/27 05:24:23;;;;;;;7.80;2.77;;;;;;;11.87;71.89;99960.97;5074239;28;20049;-63
2021/11/27 05:26:49;;;;;;;9.10;2.90;;;;;;;11.90;71.85;99968.72;5073112;28;20044;-64
2021/11/27 05:29:16;;;;;;;7.57;2.27;;;;;;;11.76;71.96;99940.66;5072985;28;20198;-63
2021/11/27 05:31:45;;;;;;;6.03;1.93;;;;;;;11.81;71.88;99937.78;5070290;28;20119;-63
2021/11/27 05:36:48;;;;;;;10.83;2.40;;;;;;;12.00;71.99;99958.22;5072576;28;20098;-63
2021/11/27 05:39:15;;;;;;;3.43;1.80;;;;;;;12.03;71.70;99949.22;5071185;28;20088;-63
2021/11/27 05:41:43;;;;;;;11.60;2.00;;;;;;;12.08;71.74;99949.13;5070430;28;20135;-64
2021/11/27 05:44:10;;;;;;;7.13;1.87;;;;;;;12.09;71.73;99955.53;5076331;28;20122;-64
2021/11/27 05:46:37;;;;;;;4.83;1.87;;;;;;;12.05;71.80;99955.31;5071790;28;20456;-64
2021/11/27 05:49:03;;;;;;;6.20;1.33;;;;;;;12.02;72.06;99957.91;5073916;28;20072;-64
2021/11/27 05:51:30;;;;;;;1.93;1.20;;;;;;;11.97;71.93;99949.59;5096689;28;20084;-63
2021/11/27 05:53:57;;;;;;;6.93;1.90;;;;;;;11.71;71.95;99908.00;5071430;28;20128;-68
2021/11/27 05:56:25;;;;;;;2.37;1.43;;;;;;;11.73;71.76;99918.91;5076109;28;20087;-67
2021/11/27 05:58:52;;;;;;;4.63;1.33;;;;;;;12.00;71.69;99954.56;5073204;28;20127;-66
2021/11/27 06:01:19;;;;;;;6.93;1.40;;;;;;;12.00;71.53;99963.81;5072819;28;20084;-66
2021/11/27 06:03:45;;;;;;;6.17;1.60;;;;;;;11.68;71.40;99919.78;5074643;28;20049;-65
2021/11/27 06:06:12;;;;;;;9.30;1.70;;;;;;;11.94;71.41;99956.63;5072589;28;20560;-66
2021/11/27 06:08:39;;;;;;;3.13;1.60;;;;;;;11.87;71.43;99964.59;5072419;28;20132;-65
2021/11/27 06:11:06;;;;;;;4.60;1.77;;;;;;;11.81;71.08;99955.41;5070808;28;20124;-63
2021/11/27 06:13:34;;;;;;;6.07;1.27;;;;;;;11.75;71.04;99951.00;5069253;28;20053;-64
2021/11/27 06:16:06;;;;;;;8.87;1.17;;;;;;;11.68;71.12;99949.72;5072050;28;20131;-66
2021/11/27 06:18:35;;;;;;;10.73;2.50;;;;;;;11.72;71.21;99954.41;5072976;28;20416;-65
2021/11/27 06:21:03;;;;;;;6.90;1.33;;;;;;;11.63;71.29;99959.03;5075612;28;20464;-66
2021/11/27 06:23:32;;;;;;;14.60;2.47;;;;;;;11.41;71.58;99954.03;5068715;28;20049;-65
2021/11/27 06:25:59;;;;;;;2.90;1.10;;;;;;;11.46;71.59;99970.75;5072287;28;22316;-63
2021/11/27 06:28:26;;;;;;;7.83;1.10;;;;;;;11.40;71.68;99966.34;5062836;28;20092;-62
2021/11/27 06:30:53;;;;;;;6.43;2.20;;;;;;;11.34;71.87;99970.34;5069521;28;20066;-62
2021/11/27 06:33:20;;;;;;;7.63;1.87;;;;;;;11.29;71.83;99954.47;5072240;28;20044;-61
2021/11/27 06:35:47;;;;;;;6.53;1.67;;;;;;;11.42;71.94;99978.06;5088105;28;20072;-61
2021/11/27 06:38:14;;;;;;;16.40;2.27;;;;;;;11.49;72.05;99995.31;5071333;28;20040;-61
2021/11/27 06:40:41;;;;;;;12.57;2.13;;;;;;;11.48;72.45;100002.00;5071114;28;20127;-62
2021/11/27 06:43:08;;;;;;;4.60;0.97;;;;;;;11.41;72.63;99987.56;5071921;28;20130;-60
2021/11/27 06:45:34;;;;;;;9.37;1.50;;;;;;;11.18;72.62;99963.28;5066435;28;20127;-60
2021/11/27 06:48:01;;;;;;;13.50;1.80;;;;;;;11.35;72.86;99999.94;5072031;28;20072;-61
2021/11/27 06:50:28;;;;;;;13.77;2.00;;;;;;;11.20;73.08;99989.81;5072038;28;20127;-60
2021/11/27 06:52:55;;;;;;;10.60;2.03;;;;;;;11.34;72.99;99998.28;5068109;28;20131;-60
2021/11/27 06:55:22;;;;;;;10.40;0.90;;;;;;;11.29;72.87;99981.59;5070325;28;20123;-60
2021/11/27 06:57:49;;;;;;;6.70;1.43;;;;;;;11.35;72.82;99985.97;5057276;28;20095;-61
2021/11/27 07:00:16;;;;;;;9.47;1.47;;;;;;;11.40;72.59;99991.50;5071498;28;20132;-61
2021/11/27 07:02:43;;;;;;;7.30;1.33;;;;;;;11.37;72.30;99983.72;5071092;28;20123;-63
2021/11/27 07:05:09;;;;;;;10.80;1.67;;;;;;;11.33;72.28;99989.06;5071396;28;20088;-62
2021/11/27 07:07:36;;;;;;;12.87;1.60;;;;;;;11.28;72.25;99991.09;5071527;28;20052;-59
2021/11/27 07:10:04;;;;;;;7.10;1.30;;;;;;;11.20;72.09;99989.81;5071159;28;20484;-59
2021/11/27 07:12:37;;;;;;;13.43;1.57;;;;;;;11.13;72.20;99997.72;5075376;28;20052;-60
2021/11/27 07:15:05;;;;;;;5.37;1.17;;;;;;;11.05;72.05;99988.03;5070181;28;20128;-63
2021/11/27 07:17:32;;;;;;;3.70;1.53;;;;;;;11.04;72.46;99991.09;5072905;28;20128;-61
2021/11/27 07:20:00;;;;;;;8.60;1.70;;;;;;;10.99;72.19;100007.94;5071804;28;20123;-61
2021/11/27 07:22:27;;;;;;;7.83;1.17;;;;;;;10.86;72.04;99985.16;5085947;28;20076;-61
2021/11/27 07:24:53;;;;;;;7.07;1.27;;;;;;;10.95;72.07;100018.88;5070937;28;20457;-59
2021/11/27 07:27:20;;;;;;;13.17;1.53;;;;;;;10.94;72.15;100021.97;5069910;28;20120;-60
2021/11/27 07:29:47;;;;;;;8.13;2.07;;;;;;;10.88;71.90;100022.03;5070105;28;20052;-60
2021/11/27 07:32:14;;;;;;;4.17;0.90;;;;;;;10.94;72.00;100028.41;5070079;28;20116;-59
2021/11/27 07:34:41;;;;;;;4.43;1.20;;;;;;;10.87;72.13;100028.75;5070185;28;20131;-60
2021/11/27 07:37:09;;;;;;;5.40;1.40;;;;;;;10.85;72.08;100032.97;5070299;28;20385;-60
2021/11/27 07:39:37;;;;;;;4.93;1.20;;;;;;;10.78;72.27;100032.47;5070054;28;20144;-63
2021/11/27 07:42:04;;;;;;;10.40;1.43;;;;;;;10.74;72.24;100015.47;5068400;28;20049;-62
2021/11/27 07:44:33;;;;;;;6.43;1.77;;;;;;;10.75;72.04;100025.50;5070734;28;20064;-66
2021/11/27 07:46:59;;;;;;;12.53;1.03;;;;;;;10.85;72.14;100039.38;5069837;28;20068;-64
2021/11/27 07:49:27;;;;;;;8.10;1.53;;;;;;;10.91;72.07;100045.75;5070659;28;20087;-61
2021/11/27 07:51:54;;;;;;;8.27;1.50;;;;;;;10.90;71.78;100042.09;5070469;28;20128;-61
2021/11/27 07:54:21;;;;;;;6.43;1.20;;;;;;;10.77;71.87;100025.19;5070054;28;20135;-57
2021/11/27 07:56:48;;;;;;;9.53;2.23;;;;;;;10.98;72.02;100059.38;5070664;28;20135;-59
2021/11/27 07:59:14;;;;;;;8.00;1.27;;;;;;;11.07;71.74;100075.19;5070756;28;20139;-59
2021/11/27 08:01:41;;;;;;;10.13;2.83;;;;;;;11.11;72.06;100059.50;5071004;28;20117;-62
2021/11/27 08:04:08;;;;;;;8.27;1.63;;;;;;;11.25;71.97;100062.44;5070820;28;20048;-61
2021/11/27 08:06:36;;;;;;;3.50;0.90;;;;;;;11.42;72.04;100070.34;5070105;28;20048;-63
2021/11/27 08:09:03;;;;;;;12.50;2.00;;;;;;;11.66;71.92;100069.47;5070888;28;20135;-60
2021/11/27 08:11:30;;;;;;;14.57;2.00;;;;;;;11.80;72.05;100070.41;5066889;28;20091;-59
2021/11/27 08:13:59;;;;;;;8.47;1.33;;;;;;;11.93;71.97;100074.44;5074825;28;20127;-62
2021/11/27 08:16:26;;;;;;;12.50;2.23;;;;;;;12.20;72.06;100076.56;5068824;28;20523;-61
2021/11/27 08:18:53;;;;;;;19.57;1.63;;;;;;;12.39;71.88;100088.59;5071066;28;20128;-58
2021/11/27 08:21:20;;;;;;;12.90;2.20;;;;;;;12.40;71.79;100072.63;5071205;28;20090;-60
2021/11/27 08:23:49;;;;;;;4.60;2.37;;;;;;;12.63;71.79;100093.25;5067938;28;20041;-60
2021/11/27 08:26:16;;;;;;;18.37;3.17;;;;;;;12.79;71.68;100101.09;5068107;28;20041;-58
2021/11/27 08:28:43;;;;;;;11.87;2.17;;;;;;;13.05;71.51;100093.06;5073995;28;20136;-59
2021/11/27 08:31:10;;;;;;;11.53;2.63;;;;;;;13.27;71.43;100080.38;5074163;28;20072;-58
2021/11/27 08:33:37;;;;;;;12.53;2.50;;;;;;;13.38;71.23;100089.41;5072273;28;20084;-59
2021/11/27 08:36:04;;;;;;;10.10;2.60;;;;;;;13.46;71.08;100095.13;5076282;28;20457;-63
2021/11/27 08:38:31;;;;;;;8.73;2.13;;;;;;;13.76;70.91;100095.63;5072922;28;20048;-60
2021/11/27 08:40:58;;;;;;;9.63;2.13;;;;;;;14.02;70.79;100098.72;5074350;28;20131;-57
2021/11/27 08:43:26;;;;;;;6.87;1.83;;;;;;;14.34;69.60;100100.50;5072498;28;20053;-58
2021/11/27 08:45:53;;;;;;;9.70;2.77;;;;;;;14.67;69.82;100105.94;5072625;28;20083;-57
2021/11/27 08:48:20;;;;;;;10.00;2.10;;;;;;;15.28;69.16;100118.44;5077998;28;20079;-58
2021/11/27 08:50:47;;;;;;;7.63;2.33;;;;;;;15.65;69.24;100096.56;5072353;28;20083;-57
2021/11/27 08:53:14;;;;;;;4.57;1.77;;;;;;;16.10;68.90;100130.16;5073314;28;20548;-58
2021/11/27 08:55:41;;;;;;;5.50;1.83;;;;;;;16.45;68.71;100133.06;5071013;28;20094;-59
2021/11/27 08:58:07;;;;;;;12.18;3.00;;;;;;;16.84;68.52;100140.53;5071461;28;20147;-59
2021/11/27 09:00:35;;;;;;;12.73;2.92;;;;;;;17.05;67.43;100138.69;5071034;28;20548;-59
2021/11/27 09:03:04;;;;;;;12.25;2.28;;;;;;;16.96;67.15;100156.81;5073839;28;20464;-59
2021/11/27 09:05:32;;;;;;;6.25;1.75;;;;;;;17.14;66.90;100158.44;5070756;28;20667;-59
2021/11/27 09:07:58;;;;;;;5.68;2.35;;;;;;;17.44;66.11;100164.19;5070387;28;20171;-59
2021/11/27 09:10:26;;;;;;;9.60;2.40;;;;;;;17.89;65.17;100175.03;5070474;28;20064;-60
2021/11/27 09:12:53;;;;;;;9.95;2.63;;;;;;;18.53;64.29;100177.66;5067669;28;20527;-59
2021/11/27 09:15:20;;;;;;;4.72;2.00;;;;;;;19.03;62.99;100162.63;5067814;28;20075;-59
2021/11/27 09:17:48;;;;;;;7.63;2.42;;;;;;;19.04;61.66;100171.94;5068573;28;20052;-57
2021/11/27 09:20:16;;;;;;;13.00;3.40;;;;;;;19.69;60.69;100178.78;5070875;28;20075;-56
2021/11/27 09:22:43;;;;;;;9.90;1.88;;;;;;;20.26;59.04;100171.41;5070749;28;20044;-56
2021/11/27 09:25:10;;;;;;;6.80;1.75;;;;;;;20.32;56.08;100165.13;5074625;28;20083;-56
2021/11/27 09:27:38;;;;;;;8.15;2.28;;;;;;;20.21;54.33;100168.81;5072966;28;20131;-55
2021/11/27 09:30:07;;;;;;;8.98;2.35;;;;;;;20.29;53.30;100177.19;5074020;28;20528;-54
2021/11/27 09:32:35;;;;;;;5.70;2.13;;;;;;;20.30;51.62;100155.31;5073636;28;20601;-55
2021/11/27 09:35:04;;;;;;;5.70;2.25;;;;;;;20.85;50.99;100176.50;5073918;28;20131;-53
2021/11/27 09:37:31;;;;;;;5.03;1.88;;;;;;;21.08;50.84;100161.78;5074337;28;20040;-55
2021/11/27 09:39:57;;;;;;;4.75;2.03;;;;;;;21.21;49.11;100174.75;5074435;28;20488;-54
2021/11/27 09:42:26;;;;;;;5.20;2.03;;;;;;;21.26;48.65;100154.59;5073603;28;20124;-55
2021/11/27 09:44:54;;;;;;;4.95;2.05;;;;;;;21.71;48.04;100182.69;5073752;28;20087;-55
2021/11/27 09:47:21;;;;;;;2.60;1.70;;;;;;;21.83;47.41;100175.25;5074163;28;20080;-54
2021/11/27 09:49:49;;;;;;;2.67;1.95;;;;;;;22.05;46.86;100177.47;5074310;28;20598;-56
2021/11/27 09:52:18;;;;;;;4.90;2.00;;;;;;;22.25;45.74;100172.69;5071454;28;20620;-55
2021/11/27 09:54:45;;;;;;;4.55;1.67;;;;;;;22.26;46.23;100191.44;5074026;28;20124;-56
2021/11/27 09:57:12;;;;;;;7.18;2.40;;;;;;;22.21;45.23;100208.75;5074065;28;20056;-55
2021/11/27 09:59:41;;;;;;;4.53;2.03;;;;;;;22.01;45.44;100200.09;5088260;28;20456;-55
2021/11/27 10:02:10;;;;;;;7.55;2.38;;;;;;;21.91;44.65;100196.97;5078012;28;20071;-56
2021/11/27 10:04:40;;;;;;;5.05;1.83;;;;;;;21.82;44.95;100211.38;5074063;28;20048;-54
2021/11/27 10:07:13;;;;;;;2.88;1.77;;;;;;;21.76;44.58;100221.38;5073533;28;20087;-54
2021/11/27 10:09:42;;;;;;;5.35;2.03;;;;;;;21.65;43.84;100228.78;5073525;28;20076;-55
2021/11/27 10:12:10;;;;;;;5.28;1.90;;;;;;;21.73;44.54;100224.94;5069712;28;20053;-55
2021/11/27 10:14:39;;;;;;;5.43;1.92;;;;;;;21.98;44.56;100212.22;5054059;28;20088;-54
2021/11/27 10:17:12;;;;;;;7.72;3.15;;;;;;;21.71;43.38;100215.97;5072088;28;20512;-55
2021/11/27 10:19:41;;;;;;;5.72;2.10;;;;;;;21.40;42.79;100237.44;5072793;28;20079;-55
2021/11/27 10:22:09;;;;;;;;;;;;;;;21.03;44.94;100226.16;5073451;28;20478;-56
2021/11/27 10:24:37;;;;;;;2.25;1.60;;;;;;;21.44;43.83;100238.34;5073780;28;19947;-55
2021/11/27 10:27:16;;;;;;;3.25;1.75;;;;;;;21.26;42.30;100217.06;5072904;28;20131;-55
2021/11/27 10:29:54;;;;;;;7.60;2.63;;;;;;;21.01;41.27;100244.72;5077451;28;20504;-55
2021/11/27 10:32:23;;;;;;;6.20;2.13;;;;;;;21.25;42.34;100252.34;5073471;28;20117;-55
2021/11/27 10:34:55;;;;;;;4.40;2.00;;;;;;;21.53;41.67;100252.38;5072216;28;20446;-54
2021/11/27 10:37:27;;;;;;;5.85;1.80;;;;;;;21.85;41.64;100258.97;5072992;28;20094;-55
2021/11/27 10:40:09;;;;;;;3.30;2.10;;;;;;;22.06;41.37;100257.91;5075235;28;20127;-55
2021/11/27 10:42:40;;;;;;;8.20;2.45;;;;;;;22.32;40.25;100255.34;5054162;28;20105;-55
2021/11/27 10:45:31;;;;;;;6.10;2.35;;;;;;;22.14;39.19;100263.41;5053745;28;20472;-57
2021/11/27 10:48:11;;;;;;;8.23;3.13;;;;;;;21.95;40.43;100260.47;5053357;28;20048;-55
2021/11/27 10:50:49;;;;;;;3.85;1.75;;;;;;;21.82;39.36;100268.22;5061534;28;20178;-54
2021/11/27 10:53:19;;;;;;;6.72;2.60;;;;;;;21.91;38.65;100266.03;5073314;28;20075;-55
2021/11/27 10:55:46;;;;;;;6.90;2.63;;;;;;;22.51;39.65;100259.50;5072563;28;20078;-55
2021/11/27 10:58:15;;;;;;;3.78;2.50;;;;;;;22.81;39.00;100257.78;5073168;28;20134;-55
2021/11/27 11:00:50;;;;;;;8.82;2.30;;;;;;;22.77;38.76;100265.44;5070214;28;20076;-56
2021/11/27 11:03:24;;;;;;;4.45;2.53;;;;;;;22.03;38.50;100272.84;5063135;28;20130;-54
2021/11/27 11:05:53;;;;;;;8.00;3.03;;;;;;;21.65;38.65;100275.06;5072055;28;20594;-56
2021/11/27 11:08:31;;;;;;;8.68;2.72;;;;;;;21.46;38.73;100287.09;5078739;28;20048;-56
2021/11/27 11:10:59;;;;;;;5.97;2.65;;;;;;;21.52;38.44;100285.66;5073633;28;20076;-55
2021/11/27 11:13:32;;;;;;;11.23;2.90;;;;;;;21.52;38.49;100264.94;5072417;28;20496;-55
2021/11/27 11:16:09;;;;;;;10.30;3.22;;;;;;;21.71;37.84;100264.28;5072690;28;20128;-54
2021/11/27 11:18:36;;;;;;;5.72;2.60;;;;;;;21.93;37.69;100275.03;5080269;28;20448;-55
2021/11/27 11:21:05;;;;;;;7.38;2.83;;;;;;;21.93;36.31;100271.38;5080229;28;20051;-56
2021/11/27 11:23:36;;;;;;;9.05;4.20;;;;;;;22.08;36.57;100281.09;5071929;28;20044;-58
2021/11/27 11:26:09;;;;;;;7.57;3.20;;;;;;;22.55;36.42;100283.16;5072303;28;20080;-55
2021/11/27 11:28:51;;;;;;;6.07;2.97;;;;;;;22.92;36.02;100261.75;5072121;28;20056;-54
2021/11/27 11:31:38;;;;;;;7.10;3.65;;;;;;;23.14;36.08;100265.88;5072391;28;20072;-55